Time;durP1;ratioP1;P1;durP2;ratioP2;P2;SDS_P1;SDS_P2;PMS_P1;PMS_P2;Temp;Humidity;BMP_temperature;BMP_pressure;BME280_temperature;BME280_humidity;BME280_pressure;Samples;Min_cycle;Max_cycle;Signal;HPM_P1;HPM_P2
2022/07/06 00:01:51;;;;;;;5.37;1.90;;;14.60;99.90;;;;;;5159209;27;20053;-80
2022/07/06 00:04:19;;;;;;;3.53;1.50;;;14.60;99.90;;;;;;5159103;27;20042;-80
2022/07/06 00:06:45;;;;;;;4.65;1.75;;;14.60;99.90;;;;;;5159028;27;20084;-80
2022/07/06 00:09:11;;;;;;;5.57;1.80;;;14.60;99.90;;;;;;5158631;27;20054;-80
2022/07/06 00:11:37;;;;;;;4.13;1.50;;;14.60;99.90;;;;;;5140653;27;20027;-79
2022/07/06 00:14:03;;;;;;;4.87;1.67;;;14.60;99.90;;;;;;5158889;27;20031;-80
2022/07/06 00:16:28;;;;;;;3.88;1.50;;;14.60;99.90;;;;;;5123232;27;20588;-80
2022/07/06 00:18:54;;;;;;;4.10;1.60;;;14.50;99.90;;;;;;5158950;27;20035;-79
2022/07/06 00:21:20;;;;;;;5.43;1.70;;;14.50;99.90;;;;;;5158420;27;20039;-81
2022/07/06 00:23:45;;;;;;;3.83;1.50;;;14.50;99.90;;;;;;5158641;27;20031;-79
2022/07/06 00:26:11;;;;;;;4.40;1.50;;;14.50;99.90;;;;;;5140248;27;20046;-79
2022/07/06 00:28:37;;;;;;;8.02;1.90;;;14.50;99.90;;;;;;5158574;27;20555;-79
2022/07/06 00:31:02;;;;;;;2.73;1.40;;;14.40;99.90;;;;;;5158706;27;20378;-79
2022/07/06 00:33:28;;;;;;;4.45;1.60;;;14.40;99.90;;;;;;5158596;27;20042;-79
2022/07/06 00:35:53;;;;;;;5.30;1.63;;;14.40;99.90;;;;;;5158509;27;20478;-79
2022/07/06 00:38:19;;;;;;;5.97;1.63;;;14.40;99.90;;;;;;5139763;27;20038;-79
2022/07/06 00:40:45;;;;;;;5.60;1.92;;;14.40;99.90;;;;;;5158450;27;20077;-79
2022/07/06 00:43:10;;;;;;;4.10;1.50;;;14.40;99.90;;;;;;5158289;27;20045;-79
2022/07/06 00:45:36;;;;;;;3.60;1.65;;;14.50;99.90;;;;;;5158152;27;20035;-79
2022/07/06 00:48:02;;;;;;;4.55;1.58;;;14.50;99.90;;;;;;5158347;27;20108;-79
2022/07/06 00:50:28;;;;;;;4.40;1.60;;;14.50;99.90;;;;;;5158246;27;20368;-79
2022/07/06 00:52:56;;;;;;;4.18;1.70;;;14.60;99.90;;;;;;5157896;27;20475;-79
2022/07/06 00:55:23;;;;;;;3.92;1.67;;;14.50;99.90;;;;;;5158123;27;20034;-79
2022/07/06 00:57:50;;;;;;;5.15;1.90;;;14.60;99.90;;;;;;5157978;27;20441;-79
2022/07/06 01:00:18;;;;;;;3.15;1.70;;;14.60;99.90;;;;;;5158077;27;20065;-79
2022/07/06 01:02:44;;;;;;;6.80;1.70;;;14.60;99.90;;;;;;5157435;27;20359;-79
2022/07/06 01:05:12;;;;;;;4.38;1.73;;;14.60;99.90;;;;;;5157353;27;20046;-79
2022/07/06 01:07:40;;;;;;;4.82;1.58;;;14.60;99.90;;;;;;5157676;27;20054;-78
2022/07/06 01:10:07;;;;;;;4.50;1.88;;;14.60;99.90;;;;;;5157885;27;20031;-78
2022/07/06 01:12:35;;;;;;;4.35;1.58;;;14.60;99.90;;;;;;5157727;27;20045;-79
2022/07/06 01:15:03;;;;;;;3.45;1.50;;;14.60;99.90;;;;;;5157720;27;20030;-79
2022/07/06 01:17:30;;;;;;;3.78;1.67;;;14.60;99.90;;;;;;5157960;27;20087;-79
2022/07/06 01:19:56;;;;;;;4.53;1.67;;;14.60;99.90;;;;;;5157669;27;20035;-79
2022/07/06 01:22:21;;;;;;;6.00;1.73;;;14.60;99.90;;;;;;5157487;27;20421;-79
2022/07/06 01:24:47;;;;;;;4.50;1.80;;;14.60;99.90;;;;;;5139114;27;20066;-79
2022/07/06 01:27:13;;;;;;;6.10;1.80;;;14.50;99.90;;;;;;5157469;27;20034;-79
2022/07/06 01:29:38;;;;;;;4.10;1.77;;;14.50;99.90;;;;;;5157519;27;20034;-78
2022/07/06 01:32:04;;;;;;;7.03;2.58;;;14.50;99.90;;;;;;5157209;27;20031;-78
2022/07/06 01:34:30;;;;;;;4.63;1.65;;;14.60;99.90;;;;;;5157091;27;20086;-78
2022/07/06 01:36:56;;;;;;;4.75;1.77;;;14.50;99.90;;;;;;5157384;27;20117;-78
2022/07/06 01:39:21;;;;;;;3.60;1.58;;;14.50;99.90;;;;;;5157308;27;20130;-78
2022/07/06 01:41:47;;;;;;;4.20;1.55;;;14.50;99.90;;;;;;5157183;27;20401;-79
2022/07/06 01:44:13;;;;;;;3.42;1.60;;;14.50;99.90;;;;;;5156850;27;20084;-80
2022/07/06 01:46:38;;;;;;;6.97;1.83;;;14.50;99.90;;;;;;5157179;27;20046;-78
2022/07/06 01:49:05;;;;;;;3.15;1.63;;;14.60;99.90;;;;;;5156927;27;20046;-79
2022/07/06 01:51:31;;;;;;;5.50;2.00;;;14.50;99.90;;;;;;5157009;27;20088;-79
2022/07/06 01:53:57;;;;;;;4.30;1.55;;;14.50;99.90;;;;;;5138741;27;20082;-78
2022/07/06 01:56:22;;;;;;;4.28;1.70;;;14.50;99.90;;;;;;5156895;27;20042;-78
2022/07/06 01:58:48;;;;;;;3.57;1.63;;;14.50;99.90;;;;;;5156927;27;20534;-79
2022/07/06 02:01:16;;;;;;;5.27;2.00;;;14.50;99.90;;;;;;5138444;27;20038;-78
2022/07/06 02:03:42;;;;;;;4.20;1.70;;;14.50;99.90;;;;;;5156650;27;20041;-79
2022/07/06 02:06:09;;;;;;;4.40;1.80;;;14.50;99.90;;;;;;5156768;27;20031;-78
2022/07/06 02:08:35;;;;;;;4.63;1.88;;;14.40;99.90;;;;;;5156352;27;20054;-79
2022/07/06 02:11:06;;;;;;;5.65;2.13;;;14.40;99.90;;;;;;5156627;27;20038;-79
2022/07/06 02:13:32;;;;;;;5.93;1.63;;;14.40;99.90;;;;;;5156601;27;20039;-78
2022/07/06 02:15:57;;;;;;;4.23;1.60;;;14.40;99.90;;;;;;5156572;27;20041;-79
2022/07/06 02:18:23;;;;;;;4.60;2.03;;;14.40;99.90;;;;;;5156536;27;20037;-78
2022/07/06 02:20:49;;;;;;;5.47;1.80;;;14.40;99.90;;;;;;5156517;27;20042;-78
2022/07/06 02:23:14;;;;;;;4.55;1.65;;;14.40;99.90;;;;;;5137603;27;20372;-79
2022/07/06 02:25:40;;;;;;;6.75;2.10;;;14.40;99.90;;;;;;5156386;27;20042;-78
2022/07/06 02:28:05;;;;;;;5.57;1.70;;;14.40;99.90;;;;;;5156351;27;20038;-79
2022/07/06 02:30:31;;;;;;;3.80;1.90;;;14.40;99.90;;;;;;5156122;27;20037;-79
2022/07/06 02:32:57;;;;;;;7.80;1.73;;;14.40;99.90;;;;;;5156266;27;20034;-79
2022/07/06 02:35:22;;;;;;;4.40;1.50;;;14.40;99.90;;;;;;5156191;27;20042;-79
2022/07/06 02:37:48;;;;;;;3.05;1.63;;;14.50;99.90;;;;;;5156187;27;20035;-79
2022/07/06 02:40:13;;;;;;;3.85;1.92;;;14.30;99.90;;;;;;5156039;27;20038;-79
2022/07/06 02:42:39;;;;;;;4.47;1.60;;;14.40;99.90;;;;;;5155975;27;20042;-79
2022/07/06 02:45:05;;;;;;;5.60;1.65;;;14.40;99.90;;;;;;5155996;27;20091;-79
2022/07/06 02:47:31;;;;;;;4.83;1.73;;;14.30;99.90;;;;;;5155969;27;20113;-79
2022/07/06 02:49:57;;;;;;;5.03;1.70;;;14.30;99.90;;;;;;5155974;27;20073;-79
2022/07/06 02:52:22;;;;;;;3.30;1.50;;;14.30;99.90;;;;;;5155926;27;20439;-79
2022/07/06 02:54:48;;;;;;;5.73;1.93;;;14.30;99.90;;;;;;5155834;27;20034;-79
2022/07/06 02:57:14;;;;;;;6.88;1.65;;;14.30;99.90;;;;;;5155793;27;20027;-79
2022/07/06 02:59:41;;;;;;;5.18;1.90;;;14.30;99.90;;;;;;5136989;27;20066;-79
2022/07/06 03:02:07;;;;;;;3.17;1.50;;;14.30;99.90;;;;;;5155773;27;20136;-79
2022/07/06 03:04:33;;;;;;;4.82;1.90;;;14.30;99.90;;;;;;5155630;27;20765;-79
2022/07/06 03:06:59;;;;;;;4.20;1.80;;;14.30;99.90;;;;;;5155691;27;20030;-78
2022/07/06 03:09:24;;;;;;;4.85;2.05;;;14.20;99.90;;;;;;5155452;27;20172;-79
2022/07/06 03:11:50;;;;;;;5.20;1.92;;;14.20;99.90;;;;;;5155623;27;20054;-79
2022/07/06 03:14:16;;;;;;;3.97;1.80;;;14.20;99.90;;;;;;5155555;27;20050;-79
2022/07/06 03:16:41;;;;;;;5.23;1.80;;;14.20;99.90;;;;;;5155536;27;20039;-79
2022/07/06 03:19:07;;;;;;;4.53;1.90;;;14.20;99.90;;;;;;5155516;27;20130;-79
2022/07/06 03:21:33;;;;;;;4.27;2.03;;;14.20;99.90;;;;;;5155538;27;20050;-79
2022/07/06 03:23:58;;;;;;;3.83;1.77;;;14.30;99.90;;;;;;5155460;27;20049;-79
2022/07/06 03:26:25;;;;;;;4.40;1.60;;;14.30;99.90;;;;;;5155017;27;20038;-79
2022/07/06 03:28:50;;;;;;;5.25;1.77;;;14.30;99.90;;;;;;5155481;27;20388;-79
2022/07/06 03:31:16;;;;;;;3.60;1.90;;;14.30;99.90;;;;;;5155465;27;20035;-80
2022/07/06 03:33:42;;;;;;;5.72;2.10;;;14.30;99.90;;;;;;5155209;27;20497;-79
2022/07/06 03:36:07;;;;;;;6.00;1.90;;;14.30;99.90;;;;;;5155362;27;20050;-79
2022/07/06 03:38:35;;;;;;;5.10;1.90;;;14.30;99.90;;;;;;5155323;27;20114;-79
2022/07/06 03:41:00;;;;;;;5.53;1.88;;;14.30;99.90;;;;;;5155256;27;20122;-79
2022/07/06 03:43:26;;;;;;;4.43;1.87;;;14.30;99.90;;;;;;5155215;27;20125;-79
2022/07/06 03:45:51;;;;;;;7.18;2.35;;;14.30;99.90;;;;;;5155006;27;20077;-80
2022/07/06 03:48:17;;;;;;;4.43;1.90;;;14.30;99.90;;;;;;5155274;27;20030;-80
2022/07/06 03:50:42;;;;;;;5.63;2.17;;;14.30;99.90;;;;;;5155219;27;20086;-79
2022/07/06 03:53:08;;;;;;;6.05;1.90;;;14.30;99.90;;;;;;5155265;27;20039;-78
2022/07/06 03:55:34;;;;;;;3.10;1.67;;;14.30;99.90;;;;;;5155094;27;20034;-78
2022/07/06 03:58:00;;;;;;;3.33;1.73;;;14.30;99.90;;;;;;5155110;27;20489;-79
2022/07/06 04:00:26;;;;;;;3.83;1.42;;;14.30;99.90;;;;;;5136486;27;20047;-79
2022/07/06 04:02:51;;;;;;;3.45;1.60;;;14.40;99.90;;;;;;5155026;27;20046;-79
2022/07/06 04:05:20;;;;;;;5.80;1.75;;;14.40;99.90;;;;;;5155071;27;20034;-79
2022/07/06 04:07:47;;;;;;;4.10;1.80;;;14.40;99.90;;;;;;5154744;27;20135;-79
2022/07/06 04:10:13;;;;;;;7.10;1.52;;;14.40;99.90;;;;;;5154903;27;20474;-78
2022/07/06 04:12:45;;;;;;;6.77;1.53;;;14.40;99.90;;;;;;5155082;27;20118;-79
2022/07/06 04:15:11;;;;;;;5.10;1.52;;;14.40;99.90;;;;;;5155003;27;20035;-79
2022/07/06 04:17:53;;;;;;;4.30;1.63;;;14.40;99.90;;;;;;5136474;27;20424;-79
2022/07/06 04:20:21;;;;;;;3.83;1.70;;;14.40;99.90;;;;;;5154742;27;20034;-79
2022/07/06 04:22:47;;;;;;;3.53;1.75;;;14.40;99.90;;;;;;5154729;27;20117;-79
2022/07/06 04:25:13;;;;;;;6.93;2.08;;;14.50;99.90;;;;;;5154920;27;20041;-79
2022/07/06 04:27:38;;;;;;;3.93;1.80;;;14.50;99.90;;;;;;5154877;27;20030;-80
2022/07/06 04:30:07;;;;;;;5.38;1.83;;;14.50;99.90;;;;;;5154862;27;20105;-79
2022/07/06 04:32:32;;;;;;;3.72;1.67;;;14.50;99.90;;;;;;5154854;27;20038;-80
2022/07/06 04:34:58;;;;;;;5.40;1.80;;;14.60;99.90;;;;;;5154798;27;20460;-79
2022/07/06 04:37:24;;;;;;;4.28;1.65;;;14.60;99.90;;;;;;5154479;27;20494;-80
2022/07/06 04:39:49;;;;;;;3.40;1.50;;;14.70;99.90;;;;;;5157417;27;20118;-80
2022/07/06 04:42:15;;;;;;;5.00;1.63;;;14.70;99.90;;;;;;5158402;27;20045;-79
2022/07/06 04:44:40;;;;;;;5.17;2.03;;;14.70;99.90;;;;;;5158358;27;20077;-79
2022/07/06 04:47:06;;;;;;;4.30;1.60;;;14.80;99.90;;;;;;5158343;27;20030;-80
2022/07/06 04:49:32;;;;;;;4.73;1.50;;;14.80;99.90;;;;;;5158231;27;20037;-80
2022/07/06 04:51:57;;;;;;;3.53;1.40;;;14.90;99.90;;;;;;5158211;27;20394;-78
2022/07/06 04:54:23;;;;;;;3.70;1.52;;;15.00;99.90;;;;;;5158214;27;20505;-79
2022/07/06 04:56:49;;;;;;;6.40;1.67;;;15.00;99.90;;;;;;5158241;27;20054;-78
2022/07/06 04:59:15;;;;;;;5.40;1.52;;;15.00;99.90;;;;;;5158118;27;20396;-79
2022/07/06 05:01:40;;;;;;;3.70;1.60;;;15.10;99.90;;;;;;5158107;27;20057;-78
2022/07/06 05:04:07;;;;;;;6.15;1.80;;;15.10;99.90;;;;;;5157682;27;20049;-79
2022/07/06 05:06:33;;;;;;;5.00;1.50;;;15.20;99.90;;;;;;5157874;27;20027;-79
2022/07/06 05:09:01;;;;;;;6.67;1.70;;;15.20;99.90;;;;;;5157557;27;20451;-79
2022/07/06 05:11:27;;;;;;;8.23;1.83;;;15.30;99.90;;;;;;5157842;27;20073;-79
2022/07/06 05:13:53;;;;;;;5.78;1.60;;;15.30;99.90;;;;;;5157827;27;20039;-78
2022/07/06 05:16:18;;;;;;;4.60;1.40;;;15.30;99.90;;;;;;5157885;27;20039;-78
2022/07/06 05:18:44;;;;;;;5.17;1.50;;;15.30;99.90;;;;;;5157829;27;20035;-79
2022/07/06 05:21:10;;;;;;;4.15;1.67;;;15.40;99.90;;;;;;5157612;27;20043;-79
2022/07/06 05:23:35;;;;;;;4.07;1.30;;;15.40;99.90;;;;;;5157579;27;20045;-79
2022/07/06 05:26:01;;;;;;;5.45;1.30;;;15.40;99.90;;;;;;5157655;27;20034;-79
2022/07/06 05:28:27;;;;;;;5.38;1.60;;;15.50;99.90;;;;;;5138859;27;20118;-79
2022/07/06 05:30:53;;;;;;;7.05;1.70;;;15.60;99.90;;;;;;5157244;27;20478;-78
2022/07/06 05:33:18;;;;;;;5.13;1.63;;;15.70;99.90;;;;;;5157507;27;20049;-78
2022/07/06 05:35:44;;;;;;;4.03;1.30;;;16.00;99.90;;;;;;5157360;27;20099;-78
2022/07/06 05:38:10;;;;;;;5.75;1.38;;;16.30;99.90;;;;;;5157346;27;20050;-79
2022/07/06 05:40:36;;;;;;;6.87;1.40;;;16.60;99.90;;;;;;5157102;27;20474;-79
2022/07/06 05:43:02;;;;;;;4.47;1.33;;;16.80;99.90;;;;;;5157201;27;20039;-80
2022/07/06 05:45:27;;;;;;;3.73;1.40;;;17.10;99.90;;;;;;5157287;27;20030;-80
2022/07/06 05:50:37;;;;;;;5.07;1.20;;;17.40;99.90;;;;;;5156371;27;20041;-80
2022/07/06 05:53:05;;;;;;;2.57;1.00;;;17.60;99.90;;;;;;5157415;27;20039;-79
2022/07/06 05:55:31;;;;;;;5.30;1.15;;;17.90;99.90;;;;;;5156767;27;20039;-80
2022/07/06 05:57:57;;;;;;;5.90;1.20;;;18.20;99.90;;;;;;5156909;27;20043;-80
2022/07/06 06:00:25;;;;;;;5.07;1.53;;;18.20;99.90;;;;;;5156835;27;20035;-80
2022/07/06 06:02:51;;;;;;;3.92;1.10;;;18.20;99.90;;;;;;5156659;27;20038;-79
2022/07/06 06:05:17;;;;;;;4.82;1.33;;;18.10;99.90;;;;;;5138115;27;20035;-79
2022/07/06 06:07:44;;;;;;;6.13;1.25;;;18.00;99.90;;;;;;5156510;27;20090;-80
2022/07/06 06:10:11;;;;;;;;;;;18.00;99.90;;;;;;5138268;27;20038;-80
2022/07/06 06:12:37;;;;;;;3.55;1.10;;;17.90;99.90;;;;;;5138165;27;19915;-80
2022/07/06 06:15:04;;;;;;;4.72;1.48;;;17.90;99.90;;;;;;5156508;27;20045;-80
2022/07/06 06:17:29;;;;;;;3.90;1.00;;;17.90;99.90;;;;;;5156452;27;20083;-80
2022/07/06 06:19:55;;;;;;;5.57;1.30;;;17.80;99.90;;;;;;5156477;27;20354;-80
2022/07/06 06:22:21;;;;;;;4.18;1.10;;;17.80;99.90;;;;;;5137921;27;20447;-80
2022/07/06 06:24:46;;;;;;;3.73;1.03;;;17.70;99.90;;;;;;5156318;27;20098;-80
2022/07/06 06:27:12;;;;;;;4.57;1.20;;;17.70;99.90;;;;;;5137904;27;20474;-79
2022/07/06 06:29:38;;;;;;;3.15;0.90;;;17.70;99.90;;;;;;5137542;27;20363;-78
2022/07/06 06:32:05;;;;;;;3.93;1.23;;;17.70;99.90;;;;;;5155998;27;20091;-79
2022/07/06 06:34:31;;;;;;;4.53;0.95;;;17.60;99.90;;;;;;5156100;27;20059;-79
2022/07/06 06:36:57;;;;;;;5.70;1.02;;;17.60;99.90;;;;;;5155893;27;20490;-79
2022/07/06 06:39:22;;;;;;;2.63;1.07;;;17.60;99.90;;;;;;5137400;27;20039;-79
2022/07/06 06:41:48;;;;;;;4.23;1.07;;;17.50;99.90;;;;;;5156038;27;20082;-80
2022/07/06 06:44:14;;;;;;;3.00;1.17;;;17.50;99.90;;;;;;5155660;27;20085;-80
2022/07/06 06:46:40;;;;;;;4.73;1.10;;;17.40;99.90;;;;;;5155980;27;20103;-79
2022/07/06 06:49:06;;;;;;;5.13;1.30;;;17.40;99.90;;;;;;5155925;27;20034;-80
2022/07/06 06:51:32;;;;;;;5.07;1.10;;;17.40;99.90;;;;;;5155642;27;20034;-80
2022/07/06 06:53:58;;;;;;;3.60;1.05;;;17.40;99.90;;;;;;5155875;27;20056;-80
2022/07/06 06:56:23;;;;;;;3.80;1.03;;;17.40;99.90;;;;;;5155879;27;20538;-80
2022/07/06 06:58:49;;;;;;;2.50;1.00;;;17.40;99.90;;;;;;5137403;27;20498;-80
2022/07/06 07:01:15;;;;;;;4.13;1.30;;;17.50;99.90;;;;;;5155021;27;20042;-80
2022/07/06 07:03:40;;;;;;;4.17;1.00;;;17.40;99.90;;;;;;5155635;27;20046;-80
2022/07/06 07:06:06;;;;;;;4.87;1.10;;;17.40;99.90;;;;;;5155756;27;20474;-80
2022/07/06 07:08:31;;;;;;;5.07;1.10;;;17.40;99.90;;;;;;5155315;27;20454;-79
2022/07/06 07:10:57;;;;;;;3.47;1.08;;;17.40;99.90;;;;;;5155376;27;20035;-79
2022/07/06 07:13:23;;;;;;;3.27;0.90;;;17.30;99.90;;;;;;5155551;27;20038;-79
2022/07/06 07:15:48;;;;;;;5.90;1.17;;;17.20;99.90;;;;;;5155473;27;20398;-79
2022/07/06 07:18:14;;;;;;;5.10;1.10;;;17.20;99.90;;;;;;5155528;27;20035;-78
2022/07/06 07:20:40;;;;;;;3.27;0.90;;;17.20;99.90;;;;;;5155457;27;20035;-79
2022/07/06 07:23:05;;;;;;;4.65;1.08;;;17.20;99.90;;;;;;5155396;27;20493;-79
2022/07/06 07:25:31;;;;;;;3.07;0.87;;;17.30;99.90;;;;;;5155455;27;20398;-79
2022/07/06 07:27:56;;;;;;;4.68;0.80;;;17.40;99.90;;;;;;5155447;27;20058;-79
2022/07/06 07:30:22;;;;;;;4.37;0.90;;;17.50;99.90;;;;;;5155506;27;20042;-79
2022/07/06 07:32:48;;;;;;;3.90;1.07;;;17.60;99.90;;;;;;5155407;27;20394;-80
2022/07/06 07:35:13;;;;;;;3.83;1.10;;;17.70;99.90;;;;;;5155574;27;20617;-79
2022/07/06 07:37:39;;;;;;;4.10;1.07;;;17.80;99.90;;;;;;5155377;27;20039;-80
2022/07/06 07:40:05;;;;;;;2.27;0.87;;;17.90;99.90;;;;;;5155333;27;20027;-80
2022/07/06 07:42:32;;;;;;;3.42;0.98;;;18.00;99.90;;;;;;5155215;27;20046;-80
2022/07/06 07:44:57;;;;;;;5.45;1.13;;;18.10;99.90;;;;;;5155279;27;20045;-80
2022/07/06 07:47:23;;;;;;;3.17;0.80;;;18.20;99.90;;;;;;5155308;27;20039;-80
2022/07/06 07:49:49;;;;;;;3.07;1.10;;;18.30;99.90;;;;;;5155141;27;20094;-80
2022/07/06 07:52:15;;;;;;;4.33;1.20;;;18.40;99.90;;;;;;5155196;27;20091;-80
2022/07/06 07:54:40;;;;;;;4.70;0.93;;;18.20;99.90;;;;;;5155212;27;20034;-80
2022/07/06 07:57:06;;;;;;;5.40;0.97;;;18.40;99.90;;;;;;5155172;27;20482;-80
2022/07/06 07:59:32;;;;;;;2.77;0.87;;;18.40;99.90;;;;;;5136840;27;20382;-80
2022/07/06 08:01:57;;;;;;;7.83;1.00;;;18.20;99.90;;;;;;5155156;27;20042;-80
2022/07/06 08:04:23;;;;;;;6.30;1.20;;;18.10;99.90;;;;;;5136555;27;20039;-80
2022/07/06 08:06:49;;;;;;;5.00;0.90;;;18.00;99.90;;;;;;5155102;27;20110;-80
2022/07/06 08:09:16;;;;;;;2.97;0.73;;;17.90;99.90;;;;;;5154712;27;20107;-79
2022/07/06 08:11:42;;;;;;;3.83;0.90;;;17.90;99.90;;;;;;5154871;27;20087;-80
2022/07/06 08:14:08;;;;;;;2.97;0.70;;;18.00;99.90;;;;;;5158267;27;20037;-80
2022/07/06 08:16:34;;;;;;;2.40;0.80;;;18.20;99.90;;;;;;5159008;27;20117;-80
2022/07/06 08:18:59;;;;;;;2.50;0.80;;;18.40;99.90;;;;;;5158812;27;20097;-80
2022/07/06 08:21:25;;;;;;;3.90;0.90;;;18.60;99.90;;;;;;5158917;27;20038;-80
2022/07/06 08:23:51;;;;;;;3.57;0.90;;;18.70;99.90;;;;;;5158730;27;20094;-78
2022/07/06 08:26:17;;;;;;;3.97;1.00;;;18.90;99.90;;;;;;5158818;27;20031;-79
2022/07/06 08:28:42;;;;;;;3.83;0.97;;;19.00;99.90;;;;;;5158720;27;20541;-79
2022/07/06 08:31:08;;;;;;;3.10;0.83;;;19.10;99.90;;;;;;5158688;27;20039;-79
2022/07/06 08:33:34;;;;;;;3.53;0.80;;;19.20;99.90;;;;;;5158629;27;20039;-79
2022/07/06 08:35:59;;;;;;;4.43;1.07;;;19.30;99.90;;;;;;5158581;27;20087;-79
2022/07/06 08:38:25;;;;;;;4.30;0.97;;;19.30;99.90;;;;;;5158522;27;20474;-79
2022/07/06 08:40:51;;;;;;;4.13;0.90;;;19.40;99.90;;;;;;5158440;27;20398;-79
2022/07/06 08:43:17;;;;;;;3.27;0.90;;;19.30;99.90;;;;;;5158376;27;20038;-79
2022/07/06 08:45:44;;;;;;;2.73;0.80;;;19.40;99.90;;;;;;5158420;27;20276;-79
2022/07/06 08:48:11;;;;;;;3.65;1.00;;;19.50;99.90;;;;;;5158265;27;20081;-79
2022/07/06 08:50:37;;;;;;;2.60;0.90;;;19.50;99.90;;;;;;5158357;27;20045;-80
2022/07/06 08:53:03;;;;;;;5.15;1.13;;;19.60;99.90;;;;;;5157989;27;20562;-79
2022/07/06 08:55:29;;;;;;;4.95;0.85;;;19.50;99.90;;;;;;5158217;27;20440;-78
2022/07/06 08:57:56;;;;;;;2.95;0.80;;;19.50;99.90;;;;;;5158181;27;20039;-79
2022/07/06 09:00:25;;;;;;;3.40;1.00;;;19.50;99.90;;;;;;5158133;27;20122;-79
2022/07/06 09:02:56;;;;;;;5.30;1.10;;;19.40;99.90;;;;;;5157928;27;20047;-79
2022/07/06 09:05:23;;;;;;;2.05;0.73;;;19.40;99.90;;;;;;5158090;27;20443;-79
2022/07/06 09:07:50;;;;;;;1.85;0.90;;;19.30;99.90;;;;;;5157667;27;20062;-79
2022/07/06 09:10:21;;;;;;;3.17;0.77;;;19.30;99.90;;;;;;5157948;27;20062;-79
2022/07/06 09:12:47;;;;;;;2.72;0.82;;;19.30;99.90;;;;;;5157951;27;20030;-79
2022/07/06 09:15:13;;;;;;;3.50;0.97;;;19.30;99.90;;;;;;5157592;27;20110;-79
2022/07/06 09:17:40;;;;;;;2.53;1.07;;;19.30;99.90;;;;;;5157790;27;20084;-78
2022/07/06 09:20:11;;;;;;;3.47;0.80;;;19.30;99.90;;;;;;5138947;27;20364;-78
2022/07/06 09:22:38;;;;;;;3.80;0.65;;;19.20;99.90;;;;;;5157570;27;20107;-79
2022/07/06 09:25:05;;;;;;;;;;;19.30;99.90;;;;;;5157396;27;20045;-78
2022/07/06 09:27:31;;;;;;;3.45;0.73;;;19.40;99.90;;;;;;5157653;27;19980;-78
2022/07/06 09:30:01;;;;;;;5.83;1.00;;;19.50;99.90;;;;;;5157579;27;20034;-78
2022/07/06 09:32:27;;;;;;;2.08;0.88;;;19.60;99.90;;;;;;5138969;27;20051;-79
2022/07/06 09:34:54;;;;;;;3.47;0.70;;;19.80;99.90;;;;;;5157348;27;20129;-78
2022/07/06 09:37:23;;;;;;;3.33;0.90;;;19.80;99.90;;;;;;5157204;27;20376;-79
2022/07/06 09:39:49;;;;;;;4.05;1.10;;;19.80;99.90;;;;;;5157317;27;20049;-79
2022/07/06 09:42:15;;;;;;;2.33;0.70;;;19.90;99.90;;;;;;5157088;27;20478;-79
2022/07/06 09:44:41;;;;;;;3.10;0.77;;;19.90;99.90;;;;;;5157092;27;20039;-79
2022/07/06 09:47:09;;;;;;;3.40;0.82;;;19.80;99.90;;;;;;5156949;27;20485;-78
2022/07/06 09:49:36;;;;;;;5.00;0.82;;;19.80;99.90;;;;;;5157183;27;20367;-79
2022/07/06 09:52:04;;;;;;;2.35;0.80;;;19.90;99.90;;;;;;5156996;27;20034;-78
2022/07/06 09:54:30;;;;;;;2.83;1.00;;;19.90;99.90;;;;;;5157006;27;20054;-78
2022/07/06 09:56:57;;;;;;;2.47;0.80;;;20.00;99.90;;;;;;5156704;27;20046;-79
2022/07/06 09:59:24;;;;;;;2.47;0.90;;;19.90;99.90;;;;;;5156820;27;20090;-79
2022/07/06 10:01:55;;;;;;;3.83;0.80;;;20.10;99.90;;;;;;5156874;27;20050;-79
2022/07/06 10:04:22;;;;;;;2.78;0.70;;;20.20;99.90;;;;;;5156746;27;20123;-79
2022/07/06 10:06:48;;;;;;;2.55;0.70;;;20.40;99.90;;;;;;5156778;27;20038;-79
2022/07/06 10:09:14;;;;;;;2.47;0.80;;;20.60;99.90;;;;;;5156611;27;20105;-79
2022/07/06 10:11:52;;;;;;;3.83;0.77;;;20.80;99.20;;;;;;5156706;27;20386;-79
2022/07/06 10:14:21;;;;;;;1.75;0.60;;;20.90;99.30;;;;;;5156648;27;20105;-80
2022/07/06 10:16:47;;;;;;;2.78;0.70;;;21.10;98.20;;;;;;5156417;27;20501;-80
2022/07/06 10:19:15;;;;;;;2.50;0.70;;;21.30;98.00;;;;;;5156486;27;20158;-80
2022/07/06 10:21:41;;;;;;;2.78;0.63;;;21.40;97.80;;;;;;5156464;27;20038;-80
2022/07/06 10:24:08;;;;;;;2.85;0.60;;;21.50;97.80;;;;;;5156327;27;20035;-80
2022/07/06 10:26:35;;;;;;;2.88;0.65;;;21.60;98.20;;;;;;5156116;27;20543;-80
2022/07/06 10:29:06;;;;;;;1.63;0.55;;;21.70;97.60;;;;;;5156313;27;20079;-80
2022/07/06 10:31:33;;;;;;;2.75;0.60;;;21.70;96.90;;;;;;5156282;27;20042;-80
2022/07/06 10:34:01;;;;;;;3.80;0.80;;;21.70;96.90;;;;;;5156170;27;20053;-80
2022/07/06 10:36:28;;;;;;;2.45;0.65;;;21.60;95.90;;;;;;5155200;27;20105;-80
2022/07/06 10:38:54;;;;;;;2.15;0.60;;;21.30;95.60;;;;;;5156172;27;20126;-80
2022/07/06 10:41:31;;;;;;;3.20;0.60;;;21.30;95.20;;;;;;5156086;27;20121;-80
2022/07/06 10:43:58;;;;;;;2.53;0.70;;;21.20;94.80;;;;;;5156024;27;20085;-77
2022/07/06 10:46:27;;;;;;;;;;;21.10;95.30;;;;;;5156440;27;20066;-80
2022/07/06 10:48:54;;;;;;;1.23;0.40;;;21.10;94.20;;;;;;5155960;27;20021;-78
2022/07/06 10:51:24;;;;;;;;;;;21.10;95.30;;;;;;5156327;27;20117;-78
2022/07/06 10:53:57;;;;;;;2.83;0.65;;;20.90;94.00;;;;;;5137198;27;20362;-78
2022/07/06 10:56:33;;;;;;;2.97;0.60;;;20.90;94.80;;;;;;5155876;27;20042;-79
2022/07/06 10:59:08;;;;;;;1.80;0.57;;;21.10;94.50;;;;;;5155843;27;20038;-79
2022/07/06 11:01:35;;;;;;;1.17;0.55;;;21.20;95.10;;;;;;5155750;27;20041;-79
2022/07/06 11:04:01;;;;;;;3.72;0.70;;;21.30;94.60;;;;;;5155628;27;20035;-79
2022/07/06 11:06:26;;;;;;;3.22;0.63;;;21.40;94.70;;;;;;5155709;27;20043;-79
2022/07/06 11:09:04;;;;;;;1.63;0.50;;;21.40;94.40;;;;;;5155274;27;20050;-78
2022/07/06 11:11:35;;;;;;;2.20;0.70;;;21.40;94.60;;;;;;5155672;27;20078;-78
2022/07/06 11:14:17;;;;;;;2.30;0.63;;;21.50;96.00;;;;;;5155451;27;20046;-79
2022/07/06 11:16:49;;;;;;;1.00;0.50;;;21.50;93.80;;;;;;5155573;27;20438;-78
2022/07/06 11:19:17;;;;;;;2.28;0.80;;;21.50;95.30;;;;;;5155527;27;20121;-79
2022/07/06 11:21:53;;;;;;;1.98;0.50;;;21.50;94.40;;;;;;5155542;27;20039;-78
2022/07/06 11:24:26;;;;;;;3.97;0.70;;;21.80;95.20;;;;;;5155422;27;20039;-79
2022/07/06 11:26:53;;;;;;;2.08;0.85;;;21.90;94.50;;;;;;5155496;27;20364;-78
2022/07/06 11:29:21;;;;;;;;;;;21.90;94.40;;;;;;5155854;27;20070;-79
2022/07/06 11:31:48;;;;;;;2.28;0.77;;;21.90;94.60;;;;;;5155445;27;19922;-79
2022/07/06 11:34:20;;;;;;;1.33;0.50;;;21.90;95.00;;;;;;5155346;27;20079;-79
2022/07/06 11:36:46;;;;;;;2.17;0.65;;;22.00;94.90;;;;;;5137010;27;20386;-79
2022/07/06 11:39:12;;;;;;;4.32;1.05;;;21.90;95.00;;;;;;5155293;27;20109;-79
2022/07/06 11:41:37;;;;;;;2.63;0.80;;;21.90;95.10;;;;;;5155314;27;20116;-78
2022/07/06 11:44:03;;;;;;;2.00;0.70;;;22.00;95.00;;;;;;5155242;27;20070;-79
2022/07/06 11:46:31;;;;;;;2.03;0.60;;;21.80;94.90;;;;;;5155308;27;20110;-79
2022/07/06 11:48:58;;;;;;;3.83;1.33;;;21.70;95.60;;;;;;5158409;27;20023;-78
2022/07/06 11:51:28;;;;;;;2.53;0.70;;;21.60;95.70;;;;;;5159418;27;20054;-79
2022/07/06 11:53:56;;;;;;;2.28;0.70;;;21.80;96.20;;;;;;5159377;27;20034;-79
2022/07/06 11:56:25;;;;;;;1.95;0.65;;;21.80;95.10;;;;;;5159315;27;20054;-79
2022/07/06 11:58:52;;;;;;;2.33;0.70;;;22.00;94.70;;;;;;5159244;27;20043;-79
2022/07/06 12:01:18;;;;;;;1.75;0.60;;;22.10;94.60;;;;;;5140766;27;20094;-78
2022/07/06 12:03:44;;;;;;;2.03;0.80;;;22.20;95.00;;;;;;5159355;27;20046;-79
2022/07/06 12:06:23;;;;;;;4.40;0.85;;;22.30;94.10;;;;;;5159152;27;20034;-78
2022/07/06 12:08:51;;;;;;;2.58;0.77;;;22.40;92.10;;;;;;5158825;27;20050;-79
2022/07/06 12:11:27;;;;;;;2.70;0.88;;;22.50;93.30;;;;;;5159055;27;20037;-79
2022/07/06 12:13:55;;;;;;;1.60;0.60;;;22.60;92.20;;;;;;5159203;27;20046;-79
2022/07/06 12:16:23;;;;;;;2.28;0.73;;;22.60;92.70;;;;;;5158960;27;20076;-78
2022/07/06 12:18:49;;;;;;;3.85;0.70;;;22.60;93.00;;;;;;5158936;27;20386;-78
2022/07/06 12:21:18;;;;;;;3.47;0.68;;;22.50;93.10;;;;;;5158881;27;20467;-78
2022/07/06 12:23:51;;;;;;;3.13;0.70;;;22.40;93.50;;;;;;5158683;27;20359;-78
2022/07/06 12:26:20;;;;;;;1.27;0.50;;;22.40;93.40;;;;;;5158783;27;20079;-79
2022/07/06 12:28:58;;;;;;;3.15;0.85;;;22.40;93.40;;;;;;5158565;27;20485;-79
2022/07/06 12:31:38;;;;;;;3.95;0.70;;;22.40;92.80;;;;;;5158670;27;20041;-80
2022/07/06 12:34:05;;;;;;;2.17;0.70;;;22.40;93.90;;;;;;5158633;27;20034;-79
2022/07/06 12:36:31;;;;;;;1.75;0.60;;;22.40;93.20;;;;;;5158595;27;20038;-79
2022/07/06 12:38:57;;;;;;;3.13;0.80;;;22.60;93.60;;;;;;5158389;27;20504;-79
2022/07/06 12:41:30;;;;;;;2.40;0.88;;;22.50;93.40;;;;;;5158373;27;20480;-79
2022/07/06 12:44:06;;;;;;;2.85;0.77;;;22.60;93.80;;;;;;5158460;27;20057;-79
2022/07/06 12:46:37;;;;;;;2.00;0.70;;;22.40;93.90;;;;;;5158412;27;20038;-79
2022/07/06 12:49:20;;;;;;;3.42;1.00;;;22.20;94.10;;;;;;5156651;27;20113;-78